METAR Data
IDs: Format: Raw Decoded Include TAF

Data at: 1335 UTC 14 Dec 2019

PAPO 141256Z AUTO 14022KT 10SM CLR M06/M07 A2957 RMK AO2 PK WND 16027/1227 SLP014 T10561072 FZRANO
PAPO 141215Z AUTO 15022KT 10SM SCT029 M06/M07 A2957 RMK AO2 PK WND 16026/1208 FZRANO
PAPO 141156Z AUTO 15020KT 10SM OVC029 M05/M07 A2957 RMK AO2 PK WND 16030/1057 SLP012 T10501072 11050 21061 51023 FZRANO
PAPO 141056Z AUTO 15025KT 10SM BKN013 OVC029 M05/M07 A2955 RMK AO2 PK WND 15031/1036 SLP006 T10501072 FZRANO
PAPO 141008Z AUTO 16026G29KT 10SM BKN013 OVC033 M06/M07 A2954 RMK AO2 PK WND 16029/1007 FZRANO
PAPO 140956Z AUTO 16027KT 10SM SCT013 OVC033 M06/M08 A2953 RMK AO2 PK WND 16033/0928 SLP999 T10561078 FZRANO
PAPO 140856Z AUTO 15030KT 10SM FEW013 OVC033 M05/M07 A2950 RMK AO2 PK WND 16035/0819 SLP989 T10501072 410441072 53014 FZRANO
PAPO 140843Z AUTO 16027KT 10SM SCT012 OVC033 M05/M07 A2949 RMK AO2 PK WND 16035/0819 FZRANO
PAPO 140756Z AUTO 16030KT 10SM BKN012 OVC029 M05/M07 A2947 RMK AO2 PK WND 15035/0748 SLP980 T10501072 FZRANO
PAPO 140656Z AUTO 15028KT 10SM OVC014 M06/M08 A2946 RMK AO2 PK WND 16038/0609 SLP976 T10561078 FZRANO
PAPO 140556Z AUTO 14028G34KT 10SM BKN022 M06/M09 A2946 RMK AO2 PK WND 14035/0532 SNE19 SLP975 P0000 60000 T10611089 11050 21061 51007 FZRANO
PAPO 140549Z AUTO 14028G34KT 10SM BKN022 BKN043 M06/M09 A2946 RMK AO2 PK WND 14035/0532 SNE19 P0000 FZRANO
PAPO 140456Z AUTO 15027G33KT 9SM -SN OVC047 M06/M09 A2946 RMK AO2 PK WND 15036/0446 SNB02 SLP974 P0000 T10561089 FZRANO
PAPO 140356Z AUTO 14026KT 10SM CLR M06/M09 A2944 RMK AO2 PK WND 15033/0348 SLP970 T10611094 FZRANO
PAPO 140256Z AUTO 15025KT 10SM OVC065 M06/M10 A2944 RMK AO2 PK WND 15031/0205 SLP968 T10611100 53004 FZRANO
PAPO 140156Z AUTO 15025KT 10SM OVC065 M06/M09 A2942 RMK AO2 PK WND 16031/0106 SLP964 T10561094 FZRANO
PAPO 140056Z AUTO 16026KT 10SM OVC060 M05/M09 A2942 RMK AO2 PK WND 16030/0041 SLP963 T10501089 FZRANO
PAPO 132356Z AUTO 16023KT 10SM OVC065 M05/M08 A2943 RMK AO2 PK WND 16026/2355 SLP964 T10501078 11044 21067 50002 FZRANO
PAPO 132256Z AUTO 15015KT 10SM BKN065 M05/M07 A2944 RMK AO2 SLP970 T10501067 FZRANO
PAPO 132156Z AUTO 17016KT 10SM CLR M04/M06 A2943 RMK AO2 SLP964 T10441056 FZRANO
PAPO 132120Z AUTO 16016KT 10SM SCT010 M05/M06 A2942 RMK AO2 FZRANO
PAPO 132056Z AUTO 15014KT 10SM BKN010 M06/M07 A2942 RMK AO2 SLP962 T10561067 57001 FZRANO
PAPO 132052Z AUTO 13013KT 10SM BKN010 M06/M07 A2942 RMK AO2 FZRANO
PAPO 132003Z AUTO 17005KT 10SM SCT005 M07/M08 A2942 RMK AO2 FZRANO
PAPO 131956Z AUTO 00000KT 10SM BKN005 M07/M07 A2942 RMK AO2 SLP963 T10671072 FZRANO
PAPO 131953Z AUTO 00000KT 10SM BKN005 M07/M07 A2942 RMK AO2 FZRANO
PAPO 131912Z AUTO 02008KT 3SM BR OVC003 M07/M07 A2942 RMK AO2 FZRANO
PAPO 131905Z AUTO 02009KT 1 3/4SM BR OVC003 M07/M08 A2942 RMK AO2 FZRANO
PAPO 131856Z AUTO 02010KT 4SM BR OVC003 M07/M08 A2941 RMK AO2 SLP959 T10671078 FZRANO
PAPO 131851Z AUTO 04009KT 2 1/2SM BR OVC003 M07/M07 A2941 RMK AO2 FZRANO
PAPO 131824Z AUTO 02012KT 9SM BKN003 M07/M07 A2940 RMK AO2 FZRANO
PAPO 131812Z AUTO 03011KT 10SM SCT003 M07/M07 A2941 RMK AO2 FZRANO
PAPO 131756Z AUTO 02014KT 10SM CLR M07/M07 A2940 RMK AO2 SLP955 T10671072 11056 21067 56015 FZRANO
PAPO 131356Z AUTO 36012KT 10SM CLR M06/M07 A2944 RMK AO2 SLP969 T10561067 FZRANO
PAPO 131256Z AUTO 02011KT 10SM CLR M06/M07 A2946 RMK AO2 SLP974 T10561067 FZRANO
PAPO 131156Z AUTO 01009KT 10SM CLR M07/M08 A2948 RMK AO2 SLP981 T10671078 11050 21072 58006 FZRANO
PAPO 131056Z AUTO 04007KT 10SM CLR M07/M08 A2949 RMK AO2 SLP984 T10671078 FZRANO
PAPO 130956Z AUTO 03006KT 10SM CLR M06/M07 A2949 RMK AO2 SLP986 T10561067 FZRANO
PAPO 130856Z AUTO 02009KT 10SM CLR M06/M07 A2949 RMK AO2 SLP987 T10561067 400061089 56004 FZRANO
PAPO 130756Z AUTO 02010KT 10SM CLR M06/M07 A2949 RMK AO2 SLP987 T10561067 FZRANO
PAPO 130656Z AUTO 01010KT 10SM CLR M06/M07 A2950 RMK AO2 SLP990 T10561067 FZRANO
PAPO 130556Z AUTO 03009KT 10SM CLR M05/M06 A2951 RMK AO2 SLP992 T10501061 11033 21089 56004 FZRANO
PAPO 130456Z AUTO 01007KT 10SM CLR M06/M07 A2951 RMK AO2 SLP993 T10561067 FZRANO
PAPO 130356Z AUTO 02006KT 10SM CLR M06/M07 A2951 RMK AO2 SLP994 T10611072 FZRANO
PAPO 130256Z AUTO 08004KT 10SM CLR M08/M09 A2952 RMK AO2 SLP996 T10781089 55005 FZRANO
PAPO 130156Z AUTO 07007KT 10SM CLR M08/M09 A2952 RMK AO2 SLP995 T10781089 FZRANO